sensor_id;sensor_type;location;lat;lon;timestamp;pressure;altitude;pressure_sealevel;temperature;humidity
24610;BME280;12758;47.890;11.694;2023-02-12T00:01:40;95570.16;;;1.19;100.00
24610;BME280;12758;47.890;11.694;2023-02-12T00:04:05;95568.75;;;1.28;100.00
24610;BME280;12758;47.890;11.694;2023-02-12T00:06:31;95577.03;;;1.27;100.00
24610;BME280;12758;47.890;11.694;2023-02-12T00:08:57;95581.31;;;1.16;100.00
24610;BME280;12758;47.890;11.694;2023-02-12T00:11:25;95578.84;;;1.14;100.00
24610;BME280;12758;47.890;11.694;2023-02-12T00:13:53;95577.56;;;1.17;100.00
24610;BME280;12758;47.890;11.694;2023-02-12T00:16:20;95574.28;;;1.15;100.00
24610;BME280;12758;47.890;11.694;2023-02-12T00:18:47;95583.22;;;1.09;100.00
24610;BME280;12758;47.890;11.694;2023-02-12T00:21:15;95588.72;;;1.14;100.00
24610;BME280;12758;47.890;11.694;2023-02-12T00:23:42;95582.56;;;1.13;100.00
24610;BME280;12758;47.890;11.694;2023-02-12T00:26:09;95583.00;;;1.10;100.00
24610;BME280;12758;47.890;11.694;2023-02-12T00:28:36;95576.94;;;1.03;100.00
24610;BME280;12758;47.890;11.694;2023-02-12T00:31:06;95572.59;;;1.21;100.00
24610;BME280;12758;47.890;11.694;2023-02-12T00:33:32;95568.91;;;1.33;100.00
24610;BME280;12758;47.890;11.694;2023-02-12T00:35:58;95568.69;;;1.35;100.00
24610;BME280;12758;47.890;11.694;2023-02-12T00:38:24;95568.31;;;1.31;100.00
24610;BME280;12758;47.890;11.694;2023-02-12T00:40:50;95564.91;;;1.24;100.00
24610;BME280;12758;47.890;11.694;2023-02-12T00:43:16;95558.53;;;1.25;100.00
24610;BME280;12758;47.890;11.694;2023-02-12T00:45:44;95562.03;;;1.26;100.00
24610;BME280;12758;47.890;11.694;2023-02-12T00:48:10;95563.41;;;1.28;100.00
24610;BME280;12758;47.890;11.694;2023-02-12T00:50:36;95562.25;;;1.24;100.00
24610;BME280;12758;47.890;11.694;2023-02-12T00:53:02;95564.56;;;1.21;100.00
24610;BME280;12758;47.890;11.694;2023-02-12T00:55:28;95568.50;;;1.18;100.00
24610;BME280;12758;47.890;11.694;2023-02-12T00:57:55;95570.03;;;0.96;100.00
24610;BME280;12758;47.890;11.694;2023-02-12T01:00:21;95563.97;;;0.88;100.00
24610;BME280;12758;47.890;11.694;2023-02-12T01:02:48;95566.16;;;1.10;100.00
24610;BME280;12758;47.890;11.694;2023-02-12T01:05:14;95560.13;;;1.14;100.00
24610;BME280;12758;47.890;11.694;2023-02-12T01:07:40;95560.72;;;1.16;100.00
24610;BME280;12758;47.890;11.694;2023-02-12T01:10:07;95563.84;;;1.13;100.00
24610;BME280;12758;47.890;11.694;2023-02-12T01:12:33;95566.25;;;1.03;100.00
24610;BME280;12758;47.890;11.694;2023-02-12T01:14:59;95566.28;;;1.15;100.00
24610;BME280;12758;47.890;11.694;2023-02-12T01:17:25;95574.00;;;1.23;100.00
24610;BME280;12758;47.890;11.694;2023-02-12T01:19:56;95579.41;;;1.35;100.00
24610;BME280;12758;47.890;11.694;2023-02-12T01:22:23;95581.38;;;1.39;100.00
24610;BME280;12758;47.890;11.694;2023-02-12T01:24:49;95581.84;;;1.36;100.00
24610;BME280;12758;47.890;11.694;2023-02-12T01:27:15;95587.38;;;1.23;100.00
24610;BME280;12758;47.890;11.694;2023-02-12T01:29:41;95578.47;;;1.41;100.00
24610;BME280;12758;47.890;11.694;2023-02-12T01:32:09;95577.84;;;1.27;100.00
24610;BME280;12758;47.890;11.694;2023-02-12T01:34:35;95577.84;;;1.27;100.00
24610;BME280;12758;47.890;11.694;2023-02-12T01:37:02;95572.13;;;1.24;100.00
24610;BME280;12758;47.890;11.694;2023-02-12T01:39:28;95567.19;;;1.09;100.00
24610;BME280;12758;47.890;11.694;2023-02-12T01:41:54;95575.75;;;1.29;100.00
24610;BME280;12758;47.890;11.694;2023-02-12T01:44:21;95581.19;;;1.53;100.00
24610;BME280;12758;47.890;11.694;2023-02-12T01:46:49;95580.56;;;1.39;100.00
24610;BME280;12758;47.890;11.694;2023-02-12T01:49:21;95581.56;;;1.26;100.00
24610;BME280;12758;47.890;11.694;2023-02-12T01:51:51;95570.38;;;1.17;100.00
24610;BME280;12758;47.890;11.694;2023-02-12T01:54:20;95564.16;;;1.35;100.00
24610;BME280;12758;47.890;11.694;2023-02-12T01:56:47;95558.00;;;1.47;100.00
24610;BME280;12758;47.890;11.694;2023-02-12T01:59:13;95561.16;;;1.44;100.00
24610;BME280;12758;47.890;11.694;2023-02-12T02:01:41;95562.84;;;1.26;100.00
24610;BME280;12758;47.890;11.694;2023-02-12T02:04:09;95568.50;;;1.18;100.00
24610;BME280;12758;47.890;11.694;2023-02-12T02:06:39;95574.03;;;1.05;100.00
24610;BME280;12758;47.890;11.694;2023-02-12T02:09:07;95573.75;;;0.95;100.00
24610;BME280;12758;47.890;11.694;2023-02-12T02:11:34;95570.16;;;1.19;100.00
24610;BME280;12758;47.890;11.694;2023-02-12T02:14:18;95563.47;;;1.40;100.00
24610;BME280;12758;47.890;11.694;2023-02-12T02:17:15;95552.81;;;1.22;100.00
24610;BME280;12758;47.890;11.694;2023-02-12T02:19:55;95557.78;;;1.06;100.00
24610;BME280;12758;47.890;11.694;2023-02-12T02:22:30;95565.25;;;1.16;100.00
24610;BME280;12758;47.890;11.694;2023-02-12T02:25:10;95556.91;;;1.24;100.00
24610;BME280;12758;47.890;11.694;2023-02-12T02:27:42;95561.78;;;1.27;100.00
24610;BME280;12758;47.890;11.694;2023-02-12T02:30:30;95567.28;;;1.32;100.00
24610;BME280;12758;47.890;11.694;2023-02-12T02:33:04;95570.16;;;1.19;100.00
24610;BME280;12758;47.890;11.694;2023-02-12T02:35:37;95564.56;;;1.21;100.00
24610;BME280;12758;47.890;11.694;2023-02-12T02:38:10;95569.41;;;1.12;100.00
24610;BME280;12758;47.890;11.694;2023-02-12T02:40:45;95551.75;;;1.11;100.00
24610;BME280;12758;47.890;11.694;2023-02-12T02:43:15;95550.84;;;1.17;100.00
24610;BME280;12758;47.890;11.694;2023-02-12T02:45:45;95559.47;;;1.31;100.00
24610;BME280;12758;47.890;11.694;2023-02-12T02:48:13;95552.09;;;1.14;100.00
24610;BME280;12758;47.890;11.694;2023-02-12T02:50:45;95554.72;;;1.03;100.00
24610;BME280;12758;47.890;11.694;2023-02-12T02:53:14;95552.53;;;1.00;100.00
24610;BME280;12758;47.890;11.694;2023-02-12T02:55:44;95554.44;;;0.92;100.00
24610;BME280;12758;47.890;11.694;2023-02-12T02:58:13;95552.38;;;0.95;100.00
24610;BME280;12758;47.890;11.694;2023-02-12T03:00:43;95559.94;;;0.98;100.00
24610;BME280;12758;47.890;11.694;2023-02-12T03:03:14;95552.97;;;0.97;100.00
24610;BME280;12758;47.890;11.694;2023-02-12T03:05:45;95561.34;;;1.00;100.00
24610;BME280;12758;47.890;11.694;2023-02-12T03:08:14;95562.16;;;1.01;100.00
24610;BME280;12758;47.890;11.694;2023-02-12T03:10:43;95561.09;;;1.02;100.00
24610;BME280;12758;47.890;11.694;2023-02-12T03:13:12;95563.16;;;1.18;100.00
24610;BME280;12758;47.890;11.694;2023-02-12T03:15:40;95560.81;;;1.10;100.00
24610;BME280;12758;47.890;11.694;2023-02-12T03:18:11;95564.97;;;1.06;100.00
24610;BME280;12758;47.890;11.694;2023-02-12T03:20:42;95565.72;;;1.13;100.00
24610;BME280;12758;47.890;11.694;2023-02-12T03:23:11;95577.38;;;1.00;100.00
24610;BME280;12758;47.890;11.694;2023-02-12T03:25:43;95567.50;;;1.01;100.00
24610;BME280;12758;47.890;11.694;2023-02-12T03:28:15;95568.63;;;0.93;100.00
24610;BME280;12758;47.890;11.694;2023-02-12T03:30:44;95565.94;;;0.93;100.00
24610;BME280;12758;47.890;11.694;2023-02-12T03:33:19;95567.59;;;1.24;100.00
24610;BME280;12758;47.890;11.694;2023-02-12T03:35:53;95560.63;;;1.23;100.00
24610;BME280;12758;47.890;11.694;2023-02-12T03:38:25;95563.88;;;1.25;100.00
24610;BME280;12758;47.890;11.694;2023-02-12T03:41:11;95563.16;;;1.18;100.00
24610;BME280;12758;47.890;11.694;2023-02-12T03:43:45;95565.72;;;1.13;100.00
24610;BME280;12758;47.890;11.694;2023-02-12T03:46:18;95579.16;;;1.06;100.00
24610;BME280;12758;47.890;11.694;2023-02-12T03:48:48;95582.66;;;1.07;100.00
24610;BME280;12758;47.890;11.694;2023-02-12T03:51:22;95580.28;;;0.99;100.00
24610;BME280;12758;47.890;11.694;2023-02-12T03:53:49;95588.44;;;1.04;100.00
24610;BME280;12758;47.890;11.694;2023-02-12T03:56:18;95587.28;;;1.00;100.00
24610;BME280;12758;47.890;11.694;2023-02-12T03:58:45;95588.75;;;0.96;100.00
24610;BME280;12758;47.890;11.694;2023-02-12T04:01:11;95591.41;;;0.96;100.00
24610;BME280;12758;47.890;11.694;2023-02-12T04:03:38;95589.78;;;0.95;100.00
24610;BME280;12758;47.890;11.694;2023-02-12T04:06:17;95581.16;;;0.92;100.00
24610;BME280;12758;47.890;11.694;2023-02-12T04:08:43;95577.47;;;0.93;100.00
24610;BME280;12758;47.890;11.694;2023-02-12T04:11:12;95580.28;;;0.99;100.00
24610;BME280;12758;47.890;11.694;2023-02-12T04:13:43;95583.09;;;1.04;100.00
24610;BME280;12758;47.890;11.694;2023-02-12T04:16:16;95585.81;;;1.15;100.00
24610;BME280;12758;47.890;11.694;2023-02-12T04:18:45;95595.50;;;1.28;100.00
24610;BME280;12758;47.890;11.694;2023-02-12T04:21:19;95596.91;;;1.31;100.00
24610;BME280;12758;47.890;11.694;2023-02-12T04:23:54;95608.03;;;1.16;100.00
24610;BME280;12758;47.890;11.694;2023-02-12T04:26:23;95602.25;;;1.01;100.00
24610;BME280;12758;47.890;11.694;2023-02-12T04:28:58;95611.19;;;0.95;100.00
24610;BME280;12758;47.890;11.694;2023-02-12T04:31:31;95602.78;;;0.91;100.00
24610;BME280;12758;47.890;11.694;2023-02-12T04:34:04;95603.44;;;0.86;100.00
24610;BME280;12758;47.890;11.694;2023-02-12T04:36:34;95596.94;;;0.82;100.00
24610;BME280;12758;47.890;11.694;2023-02-12T04:39:03;95603.44;;;0.86;100.00
24610;BME280;12758;47.890;11.694;2023-02-12T04:41:32;95606.13;;;0.86;100.00
24610;BME280;12758;47.890;11.694;2023-02-12T04:43:58;95598.88;;;0.93;100.00
24610;BME280;12758;47.890;11.694;2023-02-12T04:46:37;95606.72;;;0.88;100.00
24610;BME280;12758;47.890;11.694;2023-02-12T04:49:03;95604.72;;;0.84;100.00
24610;BME280;12758;47.890;11.694;2023-02-12T04:51:29;95602.06;;;0.84;100.00
24610;BME280;12758;47.890;11.694;2023-02-12T04:53:56;95607.38;;;1.02;100.00
24610;BME280;12758;47.890;11.694;2023-02-12T04:56:22;95611.09;;;1.31;100.00
24610;BME280;12758;47.890;11.694;2023-02-12T04:58:48;95617.31;;;1.13;100.00
24610;BME280;12758;47.890;11.694;2023-02-12T05:01:14;95616.69;;;1.00;100.00
24610;BME280;12758;47.890;11.694;2023-02-12T05:03:40;95618.16;;;0.96;100.00
24610;BME280;12758;47.890;11.694;2023-02-12T05:06:07;95619.41;;;0.93;100.00
24610;BME280;12758;47.890;11.694;2023-02-12T05:08:33;95613.25;;;0.92;100.00
24610;BME280;12758;47.890;11.694;2023-02-12T05:11:03;95613.84;;;1.13;100.00
24610;BME280;12758;47.890;11.694;2023-02-12T05:13:30;95603.69;;;1.33;100.00
24610;BME280;12758;47.890;11.694;2023-02-12T05:15:56;95609.44;;;1.49;100.00
24610;BME280;12758;47.890;11.694;2023-02-12T05:18:22;95622.81;;;1.49;100.00
24610;BME280;12758;47.890;11.694;2023-02-12T05:20:54;95628.25;;;1.42;100.00
24610;BME280;12758;47.890;11.694;2023-02-12T05:23:20;95623.53;;;1.26;100.00
24610;BME280;12758;47.890;11.694;2023-02-12T05:25:46;95627.31;;;1.18;100.00
24610;BME280;12758;47.890;11.694;2023-02-12T05:28:12;95629.88;;;1.13;100.00
24610;BME280;12758;47.890;11.694;2023-02-12T05:30:38;95618.38;;;1.12;100.00
24610;BME280;12758;47.890;11.694;2023-02-12T05:33:04;95619.19;;;1.13;100.00
24610;BME280;12758;47.890;11.694;2023-02-12T05:35:33;95622.97;;;1.05;100.00
24610;BME280;12758;47.890;11.694;2023-02-12T05:37:59;95620.97;;;1.01;100.00
24610;BME280;12758;47.890;11.694;2023-02-12T05:40:25;95620.69;;;0.90;100.00
24610;BME280;12758;47.890;11.694;2023-02-12T05:42:51;95627.66;;;0.91;100.00
24610;BME280;12758;47.890;11.694;2023-02-12T05:45:18;95622.75;;;0.88;100.00
24610;BME280;12758;47.890;11.694;2023-02-12T05:47:44;95624.38;;;0.89;100.00
24610;BME280;12758;47.890;11.694;2023-02-12T05:50:10;95629.66;;;0.96;100.00
24610;BME280;12758;47.890;11.694;2023-02-12T05:52:36;95630.41;;;1.03;100.00
24610;BME280;12758;47.890;11.694;2023-02-12T05:55:02;95633.13;;;1.15;100.00
24610;BME280;12758;47.890;11.694;2023-02-12T05:57:28;95624.22;;;1.21;100.00
24610;BME280;12758;47.890;11.694;2023-02-12T05:59:54;95634.53;;;1.17;100.00
24610;BME280;12758;47.890;11.694;2023-02-12T06:02:21;95635.69;;;1.10;100.00
24610;BME280;12758;47.890;11.694;2023-02-12T06:04:47;95633.28;;;1.02;100.00
24610;BME280;12758;47.890;11.694;2023-02-12T06:07:13;95635.41;;;1.00;100.00
24610;BME280;12758;47.890;11.694;2023-02-12T06:09:39;95625.88;;;1.04;100.00
24610;BME280;12758;47.890;11.694;2023-02-12T06:12:05;95641.38;;;1.13;100.00
24610;BME280;12758;47.890;11.694;2023-02-12T06:14:31;95640.94;;;1.16;100.00
24610;BME280;12758;47.890;11.694;2023-02-12T06:16:57;95638.63;;;1.02;100.00
24610;BME280;12758;47.890;11.694;2023-02-12T06:19:24;95633.75;;;0.99;100.00
24610;BME280;12758;47.890;11.694;2023-02-12T06:21:50;95635.84;;;0.97;100.00
24610;BME280;12758;47.890;11.694;2023-02-12T06:24:16;95639.97;;;0.92;100.00
24610;BME280;12758;47.890;11.694;2023-02-12T06:26:42;95646.97;;;0.93;100.00
24610;BME280;12758;47.890;11.694;2023-02-12T06:29:09;95654.75;;;0.95;100.00
24610;BME280;12758;47.890;11.694;2023-02-12T06:31:35;95660.63;;;1.04;100.00
24610;BME280;12758;47.890;11.694;2023-02-12T06:34:02;95657.78;;;1.17;100.00
24610;BME280;12758;47.890;11.694;2023-02-12T06:36:29;95656.69;;;1.06;100.00
24610;BME280;12758;47.890;11.694;2023-02-12T06:38:56;95654.31;;;0.98;100.00
24610;BME280;12758;47.890;11.694;2023-02-12T06:41:22;95655.56;;;0.96;100.00
24610;BME280;12758;47.890;11.694;2023-02-12T06:43:48;95650.66;;;0.92;100.00
24610;BME280;12758;47.890;11.694;2023-02-12T06:46:14;95661.34;;;0.92;100.00
24610;BME280;12758;47.890;11.694;2023-02-12T06:48:40;95665.09;;;0.91;100.00
24610;BME280;12758;47.890;11.694;2023-02-12T06:51:08;95659.75;;;0.91;100.00
24610;BME280;12758;47.890;11.694;2023-02-12T06:53:35;95661.00;;;0.89;100.00
24610;BME280;12758;47.890;11.694;2023-02-12T06:56:02;95655.66;;;0.89;100.00
24610;BME280;12758;47.890;11.694;2023-02-12T06:58:28;95656.38;;;0.96;100.00
24610;BME280;12758;47.890;11.694;2023-02-12T07:00:54;95659.59;;;1.05;100.00
24610;BME280;12758;47.890;11.694;2023-02-12T07:03:20;95664.66;;;1.13;100.00
24610;BME280;12758;47.890;11.694;2023-02-12T07:05:46;95668.34;;;1.12;100.00
24610;BME280;12758;47.890;11.694;2023-02-12T07:08:12;95666.09;;;1.09;100.00
24610;BME280;12758;47.890;11.694;2023-02-12T07:10:39;95667.75;;;1.10;100.00
24610;BME280;12758;47.890;11.694;2023-02-12T07:13:05;95668.94;;;1.14;100.00
24610;BME280;12758;47.890;11.694;2023-02-12T07:15:31;95664.78;;;1.18;100.00
24610;BME280;12758;47.890;11.694;2023-02-12T07:17:57;95664.78;;;1.18;100.00
24610;BME280;12758;47.890;11.694;2023-02-12T07:20:23;95665.22;;;1.15;100.00
24610;BME280;12758;47.890;11.694;2023-02-12T07:22:49;95661.53;;;1.16;100.00
24610;BME280;12758;47.890;11.694;2023-02-12T07:25:15;95661.53;;;1.16;100.00
24610;BME280;12758;47.890;11.694;2023-02-12T07:27:41;95671.31;;;1.22;100.00
24610;BME280;12758;47.890;11.694;2023-02-12T07:30:08;95663.44;;;1.27;100.00
24610;BME280;12758;47.890;11.694;2023-02-12T07:32:34;95668.78;;;1.27;100.00
24610;BME280;12758;47.890;11.694;2023-02-12T07:35:00;95670.84;;;1.25;100.00
24610;BME280;12758;47.890;11.694;2023-02-12T07:37:26;95661.81;;;1.26;100.00
24610;BME280;12758;47.890;11.694;2023-02-12T07:39:52;95666.09;;;1.27;100.00
24610;BME280;12758;47.890;11.694;2023-02-12T07:42:18;95665.06;;;1.28;100.00
24610;BME280;12758;47.890;11.694;2023-02-12T07:44:45;95668.78;;;1.27;100.00
24610;BME280;12758;47.890;11.694;2023-02-12T07:47:11;95666.69;;;1.29;100.00
24610;BME280;12758;47.890;11.694;2023-02-12T07:49:37;95662.53;;;1.33;100.00
24610;BME280;12758;47.890;11.694;2023-02-12T07:52:03;95666.97;;;1.39;100.00
24610;BME280;12758;47.890;11.694;2023-02-12T07:54:29;95662.34;;;1.47;100.00
24610;BME280;12758;47.890;11.694;2023-02-12T07:56:55;95658.31;;;1.56;100.00
24610;BME280;12758;47.890;11.694;2023-02-12T07:59:22;95657.41;;;1.62;100.00
24610;BME280;12758;47.890;11.694;2023-02-12T08:01:50;95650.09;;;1.69;100.00
24610;BME280;12758;47.890;11.694;2023-02-12T08:04:18;95659.09;;;1.75;100.00
24610;BME280;12758;47.890;11.694;2023-02-12T08:06:45;95653.03;;;1.79;100.00
24610;BME280;12758;47.890;11.694;2023-02-12T08:09:12;95657.03;;;1.89;100.00
24610;BME280;12758;47.890;11.694;2023-02-12T08:11:39;95651.81;;;1.94;100.00
24610;BME280;12758;47.890;11.694;2023-02-12T08:14:06;95646.22;;;1.95;100.00
24610;BME280;12758;47.890;11.694;2023-02-12T08:16:35;95642.63;;;2.01;100.00
24610;BME280;12758;47.890;11.694;2023-02-12T08:19:03;95646.25;;;2.07;100.00
24610;BME280;12758;47.890;11.694;2023-02-12T08:21:29;95642.06;;;2.11;100.00
24610;BME280;12758;47.890;11.694;2023-02-12T08:23:56;95640.69;;;2.20;100.00
24610;BME280;12758;47.890;11.694;2023-02-12T08:26:26;95645.81;;;2.33;100.00
24610;BME280;12758;47.890;11.694;2023-02-12T08:28:55;95639.19;;;2.36;100.00
24610;BME280;12758;47.890;11.694;2023-02-12T08:31:23;95644.06;;;2.39;100.00
24610;BME280;12758;47.890;11.694;2023-02-12T08:33:50;95645.34;;;2.37;100.00
24610;BME280;12758;47.890;11.694;2023-02-12T08:36:19;95640.81;;;2.37;100.00
24610;BME280;12758;47.890;11.694;2023-02-12T08:38:46;95636.63;;;2.29;100.00
24610;BME280;12758;47.890;11.694;2023-02-12T08:41:13;95649.19;;;2.41;100.00
24610;BME280;12758;47.890;11.694;2023-02-12T08:43:40;95647.25;;;2.48;100.00
24610;BME280;12758;47.890;11.694;2023-02-12T08:46:08;95649.34;;;2.58;100.00
24610;BME280;12758;47.890;11.694;2023-02-12T08:48:35;95645.38;;;2.60;100.00
24610;BME280;12758;47.890;11.694;2023-02-12T08:51:05;95642.44;;;2.62;100.00
24610;BME280;12758;47.890;11.694;2023-02-12T08:53:32;95649.78;;;2.66;100.00
24610;BME280;12758;47.890;11.694;2023-02-12T08:55:58;95646.75;;;2.74;100.00
24610;BME280;12758;47.890;11.694;2023-02-12T08:58:24;95645.59;;;2.70;100.00
24610;BME280;12758;47.890;11.694;2023-02-12T09:00:50;95648.84;;;2.72;100.00
24610;BME280;12758;47.890;11.694;2023-02-12T09:03:17;95648.84;;;2.72;100.00
24610;BME280;12758;47.890;11.694;2023-02-12T09:05:43;95651.41;;;2.79;100.00
24610;BME280;12758;47.890;11.694;2023-02-12T09:08:09;95654.09;;;2.79;100.00
24610;BME280;12758;47.890;11.694;2023-02-12T09:10:38;95647.56;;;2.63;100.00
24610;BME280;12758;47.890;11.694;2023-02-12T09:13:04;95660.28;;;2.79;100.00
24610;BME280;12758;47.890;11.694;2023-02-12T09:15:31;95651.63;;;3.01;100.00
24610;BME280;12758;47.890;11.694;2023-02-12T09:18:00;95652.09;;;2.98;100.00
24610;BME280;12758;47.890;11.694;2023-02-12T09:20:28;95654.16;;;3.19;100.00
24610;BME280;12758;47.890;11.694;2023-02-12T09:22:55;95647.31;;;3.00;100.00
24610;BME280;12758;47.890;11.694;2023-02-12T09:25:21;95650.97;;;2.70;100.00
24610;BME280;12758;47.890;11.694;2023-02-12T09:27:47;95646.22;;;3.24;100.00
24610;BME280;12758;47.890;11.694;2023-02-12T09:30:14;95643.34;;;3.43;100.00
24610;BME280;12758;47.890;11.694;2023-02-12T09:32:40;95641.63;;;2.61;100.00
24610;BME280;12758;47.890;11.694;2023-02-12T09:35:06;95642.78;;;2.53;100.00
24610;BME280;12758;47.890;11.694;2023-02-12T09:37:32;95645.34;;;2.37;100.00
24610;BME280;12758;47.890;11.694;2023-02-12T09:39:58;95648.03;;;2.37;100.00
24610;BME280;12758;47.890;11.694;2023-02-12T09:42:30;95643.94;;;2.22;100.00
24610;BME280;12758;47.890;11.694;2023-02-12T09:45:06;95645.66;;;2.05;100.00
24610;BME280;12758;47.890;11.694;2023-02-12T09:47:37;95649.91;;;2.36;100.00
24610;BME280;12758;47.890;11.694;2023-02-12T09:50:16;95653.97;;;2.39;100.00
24610;BME280;12758;47.890;11.694;2023-02-12T09:52:48;95652.84;;;2.70;100.00
24610;BME280;12758;47.890;11.694;2023-02-12T09:55:16;95655.03;;;2.85;100.00
24610;BME280;12758;47.890;11.694;2023-02-12T09:57:42;95657.59;;;2.44;100.00
24610;BME280;12758;47.890;11.694;2023-02-12T10:00:13;95640.09;;;2.18;100.00
24610;BME280;12758;47.890;11.694;2023-02-12T10:02:40;95647.09;;;2.31;100.00
24610;BME280;12758;47.890;11.694;2023-02-12T10:05:14;95656.88;;;2.96;100.00
24610;BME280;12758;47.890;11.694;2023-02-12T10:07:52;95664.47;;;2.52;100.00
24610;BME280;12758;47.890;11.694;2023-02-12T10:10:26;95650.13;;;2.23;100.00
24610;BME280;12758;47.890;11.694;2023-02-12T10:12:59;95650.78;;;2.18;100.00
24610;BME280;12758;47.890;11.694;2023-02-12T10:15:34;95647.31;;;2.18;100.00
24610;BME280;12758;47.890;11.694;2023-02-12T10:18:10;95651.03;;;2.17;100.00
24610;BME280;12758;47.890;11.694;2023-02-12T10:20:51;95653.47;;;2.18;100.00
24610;BME280;12758;47.890;11.694;2023-02-12T10:23:29;95664.94;;;2.96;100.00
24610;BME280;12758;47.890;11.694;2023-02-12T10:26:01;95661.22;;;2.38;100.00
24610;BME280;12758;47.890;11.694;2023-02-12T10:28:31;95662.72;;;2.46;100.00
24610;BME280;12758;47.890;11.694;2023-02-12T10:31:01;95665.69;;;3.60;100.00
24610;BME280;12758;47.890;11.694;2023-02-12T10:33:30;95664.94;;;3.36;100.00
24610;BME280;12758;47.890;11.694;2023-02-12T10:36:02;95663.31;;;2.48;100.00
24610;BME280;12758;47.890;11.694;2023-02-12T10:38:34;95657.19;;;3.11;100.00
24610;BME280;12758;47.890;11.694;2023-02-12T10:41:02;95665.63;;;2.56;100.00
24610;BME280;12758;47.890;11.694;2023-02-12T10:43:28;95646.31;;;2.54;100.00
24610;BME280;12758;47.890;11.694;2023-02-12T10:45:55;95648.41;;;2.64;100.00
24610;BME280;12758;47.890;11.694;2023-02-12T10:48:23;95647.47;;;2.35;100.00
24610;BME280;12758;47.890;11.694;2023-02-12T10:51:16;95636.75;;;2.35;100.00
24610;BME280;12758;47.890;11.694;2023-02-12T10:53:45;95642.22;;;2.40;100.00
24610;BME280;12758;47.890;11.694;2023-02-12T10:56:17;95633.69;;;2.66;100.00
24610;BME280;12758;47.890;11.694;2023-02-12T10:58:52;95634.88;;;2.70;100.00
24610;BME280;12758;47.890;11.694;2023-02-12T11:01:19;95635.78;;;2.41;100.00
24610;BME280;12758;47.890;11.694;2023-02-12T11:03:47;95645.81;;;2.33;100.00
24610;BME280;12758;47.890;11.694;2023-02-12T11:06:15;95638.25;;;2.30;100.00
24610;BME280;12758;47.890;11.694;2023-02-12T11:08:41;95637.78;;;2.45;100.00
24610;BME280;12758;47.890;11.694;2023-02-12T11:11:10;95633.47;;;2.32;100.00
24610;BME280;12758;47.890;11.694;2023-02-12T11:13:37;95633.47;;;2.32;100.00
24610;BME280;12758;47.890;11.694;2023-02-12T11:16:04;95632.31;;;2.52;100.00
24610;BME280;12758;47.890;11.694;2023-02-12T11:18:31;95635.56;;;2.77;100.00
24610;BME280;12758;47.890;11.694;2023-02-12T11:21:00;95626.94;;;2.52;100.00
24610;BME280;12758;47.890;11.694;2023-02-12T11:23:28;95632.78;;;2.49;100.00
24610;BME280;12758;47.890;11.694;2023-02-12T11:25:57;95630.22;;;2.54;100.00
24610;BME280;12758;47.890;11.694;2023-02-12T11:28:24;95632.31;;;2.52;100.00
24610;BME280;12758;47.890;11.694;2023-02-12T11:30:56;95631.03;;;2.54;100.00
24610;BME280;12758;47.890;11.694;2023-02-12T11:33:28;95630.91;;;2.61;100.00
24610;BME280;12758;47.890;11.694;2023-02-12T11:35:56;95621.59;;;2.64;100.00
24610;BME280;12758;47.890;11.694;2023-02-12T11:38:29;95621.22;;;2.72;100.00
24610;BME280;12758;47.890;11.694;2023-02-12T11:41:01;95617.13;;;2.69;100.00
24610;BME280;12758;47.890;11.694;2023-02-12T11:43:28;95617.84;;;2.76;100.00
24610;BME280;12758;47.890;11.694;2023-02-12T11:45:56;95614.53;;;2.98;100.00
24610;BME280;12758;47.890;11.694;2023-02-12T11:48:24;95617.25;;;2.86;100.00
24610;BME280;12758;47.890;11.694;2023-02-12T11:50:53;95609.31;;;3.32;100.00
24610;BME280;12758;47.890;11.694;2023-02-12T11:53:21;95610.25;;;3.83;100.00
24610;BME280;12758;47.890;11.694;2023-02-12T11:55:55;95607.84;;;3.98;100.00
24610;BME280;12758;47.890;11.694;2023-02-12T11:58:23;95602.69;;;4.13;100.00
24610;BME280;12758;47.890;11.694;2023-02-12T12:00:51;95609.31;;;4.23;100.00
24610;BME280;12758;47.890;11.694;2023-02-12T12:03:20;95611.75;;;4.41;100.00
24610;BME280;12758;47.890;11.694;2023-02-12T12:05:50;95610.19;;;4.45;100.00
24610;BME280;12758;47.890;11.694;2023-02-12T12:08:20;95606.50;;;4.51;100.00
24610;BME280;12758;47.890;11.694;2023-02-12T12:10:49;95606.00;;;4.71;100.00
24610;BME280;12758;47.890;11.694;2023-02-12T12:13:18;95597.81;;;4.83;100.00
24610;BME280;12758;47.890;11.694;2023-02-12T12:15:49;95596.19;;;4.82;100.00
24610;BME280;12758;47.890;11.694;2023-02-12T12:18:38;95602.72;;;4.86;100.00
24610;BME280;12758;47.890;11.694;2023-02-12T12:21:28;95597.16;;;4.93;100.00
24610;BME280;12758;47.890;11.694;2023-02-12T12:23:57;95598.44;;;4.90;100.00
24610;BME280;12758;47.890;11.694;2023-02-12T12:26:26;95598.94;;;4.87;100.00
24610;BME280;12758;47.890;11.694;2023-02-12T12:28:58;95596.47;;;5.02;100.00
24610;BME280;12758;47.890;11.694;2023-02-12T12:31:27;95596.47;;;5.02;100.00
24610;BME280;12758;47.890;11.694;2023-02-12T12:33:59;95592.19;;;5.06;100.00
24610;BME280;12758;47.890;11.694;2023-02-12T12:39:19;95588.63;;;5.01;100.00
24610;BME280;12758;47.890;11.694;2023-02-12T12:44:51;95585.94;;;4.79;100.00
24610;BME280;12758;47.890;11.694;2023-02-12T12:47:21;95579.78;;;4.61;100.00
24610;BME280;12758;47.890;11.694;2023-02-12T12:50:08;95586.13;;;4.55;100.00
24610;BME280;12758;47.890;11.694;2023-02-12T12:55:42;95584.78;;;4.36;100.00
24610;BME280;12758;47.890;11.694;2023-02-12T12:58:32;95576.06;;;4.29;100.00
24610;BME280;12758;47.890;11.694;2023-02-12T13:01:20;95577.88;;;4.40;100.00
24610;BME280;12758;47.890;11.694;2023-02-12T13:03:57;95576.81;;;4.24;100.00
24610;BME280;12758;47.890;11.694;2023-02-12T13:06:51;95575.91;;;4.18;100.00
24610;BME280;12758;47.890;11.694;2023-02-12T13:09:38;95574.31;;;4.17;100.00